sensor_id;sensor_type;location;lat;lon;timestamp;temperature;humidity
43995;DHT22;51687;52.160;5.298;2024-01-06T00:01:30;10.40;69.00
43995;DHT22;51687;52.160;5.298;2024-01-06T00:03:57;10.40;68.60
43995;DHT22;51687;52.160;5.298;2024-01-06T00:06:24;10.30;68.30
43995;DHT22;51687;52.160;5.298;2024-01-06T00:08:51;10.30;68.20
43995;DHT22;51687;52.160;5.298;2024-01-06T00:11:21;10.30;68.20
43995;DHT22;51687;52.160;5.298;2024-01-06T00:13:48;10.30;68.30
43995;DHT22;51687;52.160;5.298;2024-01-06T00:16:19;10.30;68.40
43995;DHT22;51687;52.160;5.298;2024-01-06T00:18:46;10.30;68.10
43995;DHT22;51687;52.160;5.298;2024-01-06T00:21:14;10.30;68.20
43995;DHT22;51687;52.160;5.298;2024-01-06T00:23:41;10.30;68.20
43995;DHT22;51687;52.160;5.298;2024-01-06T00:26:09;10.20;68.20
43995;DHT22;51687;52.160;5.298;2024-01-06T00:28:37;10.20;68.10
43995;DHT22;51687;52.160;5.298;2024-01-06T00:31:06;10.20;67.70
43995;DHT22;51687;52.160;5.298;2024-01-06T00:33:33;10.20;67.60
43995;DHT22;51687;52.160;5.298;2024-01-06T00:36:00;10.10;67.40
43995;DHT22;51687;52.160;5.298;2024-01-06T00:38:27;10.10;67.50
43995;DHT22;51687;52.160;5.298;2024-01-06T00:40:53;10.10;67.90
43995;DHT22;51687;52.160;5.298;2024-01-06T00:43:20;10.10;68.20
43995;DHT22;51687;52.160;5.298;2024-01-06T00:45:47;10.10;68.10
43995;DHT22;51687;52.160;5.298;2024-01-06T00:50:41;10.10;68.50
43995;DHT22;51687;52.160;5.298;2024-01-06T00:53:08;10.10;68.30
43995;DHT22;51687;52.160;5.298;2024-01-06T00:55:34;10.10;68.50
43995;DHT22;51687;52.160;5.298;2024-01-06T00:58:01;10.10;68.60
43995;DHT22;51687;52.160;5.298;2024-01-06T01:00:28;10.00;68.40
43995;DHT22;51687;52.160;5.298;2024-01-06T01:02:54;10.00;68.20
43995;DHT22;51687;52.160;5.298;2024-01-06T01:05:21;10.00;68.40
43995;DHT22;51687;52.160;5.298;2024-01-06T01:07:48;10.00;68.60
43995;DHT22;51687;52.160;5.298;2024-01-06T01:10:15;9.90;68.60
43995;DHT22;51687;52.160;5.298;2024-01-06T01:15:09;9.90;68.50
43995;DHT22;51687;52.160;5.298;2024-01-06T01:17:36;9.90;68.20
43995;DHT22;51687;52.160;5.298;2024-01-06T01:20:04;9.90;68.10
43995;DHT22;51687;52.160;5.298;2024-01-06T01:22:31;9.80;67.80
43995;DHT22;51687;52.160;5.298;2024-01-06T01:24:58;9.80;67.80
43995;DHT22;51687;52.160;5.298;2024-01-06T01:27:25;9.80;67.80
43995;DHT22;51687;52.160;5.298;2024-01-06T01:29:51;9.70;67.60
43995;DHT22;51687;52.160;5.298;2024-01-06T01:32:19;9.70;67.70
43995;DHT22;51687;52.160;5.298;2024-01-06T03:10:43;9.70;67.90
43995;DHT22;51687;52.160;5.298;2024-01-06T03:13:10;9.30;67.80
43995;DHT22;51687;52.160;5.298;2024-01-06T07:19:11;9.30;67.70
43995;DHT22;51687;52.160;5.298;2024-01-06T07:21:38;9.50;68.40
43995;DHT22;51687;52.160;5.298;2024-01-06T07:24:05;9.70;72.10
43995;DHT22;51687;52.160;5.298;2024-01-06T07:28:59;9.90;70.30
43995;DHT22;51687;52.160;5.298;2024-01-06T07:31:25;10.00;67.30
43995;DHT22;51687;52.160;5.298;2024-01-06T07:33:52;10.10;66.30
43995;DHT22;51687;52.160;5.298;2024-01-06T07:41:15;10.10;68.50
43995;DHT22;51687;52.160;5.298;2024-01-06T07:43:42;10.50;68.20
43995;DHT22;51687;52.160;5.298;2024-01-06T07:46:08;10.60;64.10
43995;DHT22;51687;52.160;5.298;2024-01-06T07:48:36;10.60;65.10
43995;DHT22;51687;52.160;5.298;2024-01-06T07:51:03;10.60;64.10
43995;DHT22;51687;52.160;5.298;2024-01-06T07:53:30;10.50;64.20
43995;DHT22;51687;52.160;5.298;2024-01-06T07:55:57;10.60;66.00
43995;DHT22;51687;52.160;5.298;2024-01-06T07:58:23;10.70;66.30
43995;DHT22;51687;52.160;5.298;2024-01-06T08:00:50;10.70;64.00
43995;DHT22;51687;52.160;5.298;2024-01-06T08:03:17;10.80;67.00
43995;DHT22;51687;52.160;5.298;2024-01-06T08:05:44;10.80;63.90
43995;DHT22;51687;52.160;5.298;2024-01-06T08:08:11;10.70;62.30
43995;DHT22;51687;52.160;5.298;2024-01-06T08:10:39;10.70;62.00
43995;DHT22;51687;52.160;5.298;2024-01-06T08:13:06;10.70;64.00
43995;DHT22;51687;52.160;5.298;2024-01-06T08:25:23;10.70;63.20
43995;DHT22;51687;52.160;5.298;2024-01-06T08:27:50;10.20;61.20
43995;DHT22;51687;52.160;5.298;2024-01-06T08:59:45;10.00;61.70
43995;DHT22;51687;52.160;5.298;2024-01-06T09:02:13;9.00;65.50
43995;DHT22;51687;52.160;5.298;2024-01-06T09:04:40;9.00;65.70
43995;DHT22;51687;52.160;5.298;2024-01-06T09:07:06;8.90;65.90
43995;DHT22;51687;52.160;5.298;2024-01-06T09:09:33;8.90;65.90
43995;DHT22;51687;52.160;5.298;2024-01-06T09:12:00;8.90;65.90
43995;DHT22;51687;52.160;5.298;2024-01-06T09:14:27;8.90;65.90
43995;DHT22;51687;52.160;5.298;2024-01-06T09:16:53;8.90;66.10
43995;DHT22;51687;52.160;5.298;2024-01-06T09:19:20;8.80;66.30
43995;DHT22;51687;52.160;5.298;2024-01-06T09:21:48;8.80;66.60
43995;DHT22;51687;52.160;5.298;2024-01-06T09:24:15;8.80;66.60
43995;DHT22;51687;52.160;5.298;2024-01-06T09:26:42;8.80;66.40
43995;DHT22;51687;52.160;5.298;2024-01-06T09:29:11;8.80;66.50
43995;DHT22;51687;52.160;5.298;2024-01-06T09:31:38;8.70;66.50
43995;DHT22;51687;52.160;5.298;2024-01-06T09:34:09;8.70;66.70
43995;DHT22;51687;52.160;5.298;2024-01-06T09:36:36;8.70;66.50
43995;DHT22;51687;52.160;5.298;2024-01-06T09:39:04;8.70;66.30
43995;DHT22;51687;52.160;5.298;2024-01-06T09:41:34;8.60;66.00
43995;DHT22;51687;52.160;5.298;2024-01-06T09:44:00;8.70;65.80
43995;DHT22;51687;52.160;5.298;2024-01-06T09:46:28;8.60;65.60
43995;DHT22;51687;52.160;5.298;2024-01-06T09:48:58;8.60;65.50
43995;DHT22;51687;52.160;5.298;2024-01-06T09:51:25;8.60;65.70
43995;DHT22;51687;52.160;5.298;2024-01-06T09:54:01;8.60;66.00
43995;DHT22;51687;52.160;5.298;2024-01-06T09:56:29;8.60;66.50
43995;DHT22;51687;52.160;5.298;2024-01-06T09:58:56;8.60;66.40
43995;DHT22;51687;52.160;5.298;2024-01-06T10:01:23;8.60;66.30
43995;DHT22;51687;52.160;5.298;2024-01-06T10:03:51;8.60;66.90
43995;DHT22;51687;52.160;5.298;2024-01-06T10:06:18;8.60;66.70
43995;DHT22;51687;52.160;5.298;2024-01-06T10:08:51;8.60;66.70
43995;DHT22;51687;52.160;5.298;2024-01-06T10:11:19;8.60;66.50
43995;DHT22;51687;52.160;5.298;2024-01-06T10:13:45;8.60;66.50
43995;DHT22;51687;52.160;5.298;2024-01-06T10:16:14;8.60;66.40
43995;DHT22;51687;52.160;5.298;2024-01-06T10:18:41;8.70;66.10
43995;DHT22;51687;52.160;5.298;2024-01-06T10:21:08;8.70;65.80
43995;DHT22;51687;52.160;5.298;2024-01-06T10:23:36;8.60;65.70
43995;DHT22;51687;52.160;5.298;2024-01-06T10:26:04;8.60;65.80
43995;DHT22;51687;52.160;5.298;2024-01-06T10:28:31;8.60;65.80
43995;DHT22;51687;52.160;5.298;2024-01-06T10:30:59;8.60;65.80
43995;DHT22;51687;52.160;5.298;2024-01-06T10:33:26;8.60;65.90
43995;DHT22;51687;52.160;5.298;2024-01-06T10:35:53;8.50;65.80
43995;DHT22;51687;52.160;5.298;2024-01-06T10:38:26;8.60;69.60
43995;DHT22;51687;52.160;5.298;2024-01-06T10:40:57;8.80;69.90
43995;DHT22;51687;52.160;5.298;2024-01-06T10:43:26;9.00;71.70
43995;DHT22;51687;52.160;5.298;2024-01-06T10:45:56;9.30;70.00
43995;DHT22;51687;52.160;5.298;2024-01-06T10:48:25;9.60;69.50
43995;DHT22;51687;52.160;5.298;2024-01-06T10:50:55;9.80;68.40
43995;DHT22;51687;52.160;5.298;2024-01-06T10:53:21;10.00;67.40
43995;DHT22;51687;52.160;5.298;2024-01-06T10:55:52;10.20;67.40
43995;DHT22;51687;52.160;5.298;2024-01-06T10:58:22;10.40;67.50
43995;DHT22;51687;52.160;5.298;2024-01-06T11:00:49;10.70;77.30
43995;DHT22;51687;52.160;5.298;2024-01-06T11:05:45;10.70;66.00
43995;DHT22;51687;52.160;5.298;2024-01-06T11:10:40;11.10;70.30
43995;DHT22;51687;52.160;5.298;2024-01-06T11:15:50;11.40;66.00
43995;DHT22;51687;52.160;5.298;2024-01-06T11:18:37;11.70;62.30
43995;DHT22;51687;52.160;5.298;2024-01-06T11:21:16;11.80;65.90
43995;DHT22;51687;52.160;5.298;2024-01-06T11:26:39;12.00;63.60
43995;DHT22;51687;52.160;5.298;2024-01-06T11:29:07;12.10;63.30
43995;DHT22;51687;52.160;5.298;2024-01-06T11:31:34;12.20;64.60
43995;DHT22;51687;52.160;5.298;2024-01-06T11:34:14;12.30;64.00
43995;DHT22;51687;52.160;5.298;2024-01-06T11:36:44;12.30;60.60
43995;DHT22;51687;52.160;5.298;2024-01-06T11:39:47;12.40;63.20
43995;DHT22;51687;52.160;5.298;2024-01-06T11:42:14;12.40;59.50
43995;DHT22;51687;52.160;5.298;2024-01-06T11:44:43;12.40;60.00
43995;DHT22;51687;52.160;5.298;2024-01-06T11:47:12;12.40;61.90
43995;DHT22;51687;52.160;5.298;2024-01-06T11:49:42;12.50;61.10
43995;DHT22;51687;52.160;5.298;2024-01-06T11:52:11;12.50;57.80
43995;DHT22;51687;52.160;5.298;2024-01-06T11:54:39;12.40;58.70
43995;DHT22;51687;52.160;5.298;2024-01-06T11:57:07;12.40;59.40
43995;DHT22;51687;52.160;5.298;2024-01-06T11:59:33;12.50;60.00
43995;DHT22;51687;52.160;5.298;2024-01-06T12:02:00;12.50;59.70
43995;DHT22;51687;52.160;5.298;2024-01-06T12:44:22;12.60;60.10
43995;DHT22;51687;52.160;5.298;2024-01-06T12:46:49;12.90;57.70
43995;DHT22;51687;52.160;5.298;2024-01-06T12:49:16;13.00;58.60
43995;DHT22;51687;52.160;5.298;2024-01-06T12:51:43;13.00;58.70
43995;DHT22;51687;52.160;5.298;2024-01-06T12:54:11;13.00;57.40
43995;DHT22;51687;52.160;5.298;2024-01-06T12:56:37;13.10;58.60
43995;DHT22;51687;52.160;5.298;2024-01-06T12:59:04;13.10;56.90
43995;DHT22;51687;52.160;5.298;2024-01-06T13:01:32;13.10;55.00
43995;DHT22;51687;52.160;5.298;2024-01-06T13:03:59;13.00;57.20
43995;DHT22;51687;52.160;5.298;2024-01-06T13:06:27;13.00;56.40
43995;DHT22;51687;52.160;5.298;2024-01-06T13:08:54;13.00;58.10
43995;DHT22;51687;52.160;5.298;2024-01-06T13:11:21;13.00;58.60
43995;DHT22;51687;52.160;5.298;2024-01-06T13:13:48;13.10;57.70
43995;DHT22;51687;52.160;5.298;2024-01-06T13:16:14;13.10;57.00
43995;DHT22;51687;52.160;5.298;2024-01-06T13:18:41;13.10;57.80
43995;DHT22;51687;52.160;5.298;2024-01-06T13:21:09;13.10;59.70
43995;DHT22;51687;52.160;5.298;2024-01-06T13:23:35;13.20;56.40
43995;DHT22;51687;52.160;5.298;2024-01-06T13:26:02;13.20;54.60
43995;DHT22;51687;52.160;5.298;2024-01-06T13:28:29;13.20;56.60
43995;DHT22;51687;52.160;5.298;2024-01-06T13:30:55;13.10;57.80
43995;DHT22;51687;52.160;5.298;2024-01-06T13:33:22;13.20;58.90
43995;DHT22;51687;52.160;5.298;2024-01-06T13:35:49;13.30;59.90
43995;DHT22;51687;52.160;5.298;2024-01-06T13:38:17;13.40;58.60
43995;DHT22;51687;52.160;5.298;2024-01-06T13:40:43;13.50;59.60
43995;DHT22;51687;52.160;5.298;2024-01-06T13:43:10;13.50;57.20
43995;DHT22;51687;52.160;5.298;2024-01-06T13:45:43;13.50;58.80
43995;DHT22;51687;52.160;5.298;2024-01-06T13:48:11;13.50;57.90
43995;DHT22;51687;52.160;5.298;2024-01-06T13:50:38;13.60;56.70
43995;DHT22;51687;52.160;5.298;2024-01-06T13:53:05;13.60;55.60
43995;DHT22;51687;52.160;5.298;2024-01-06T13:55:33;13.60;57.20
43995;DHT22;51687;52.160;5.298;2024-01-06T13:58:02;13.50;56.50
43995;DHT22;51687;52.160;5.298;2024-01-06T14:00:29;13.50;55.90
43995;DHT22;51687;52.160;5.298;2024-01-06T14:02:56;13.40;54.50
43995;DHT22;51687;52.160;5.298;2024-01-06T14:05:24;13.40;54.80
43995;DHT22;51687;52.160;5.298;2024-01-06T14:07:50;13.40;56.50
43995;DHT22;51687;52.160;5.298;2024-01-06T14:10:18;13.40;57.20
43995;DHT22;51687;52.160;5.298;2024-01-06T14:12:44;13.40;57.70
43995;DHT22;51687;52.160;5.298;2024-01-06T14:15:11;13.40;57.70
43995;DHT22;51687;52.160;5.298;2024-01-06T14:17:38;13.50;55.90
43995;DHT22;51687;52.160;5.298;2024-01-06T14:20:07;13.50;56.90
43995;DHT22;51687;52.160;5.298;2024-01-06T14:22:36;13.50;56.50
43995;DHT22;51687;52.160;5.298;2024-01-06T14:25:04;13.50;55.60
43995;DHT22;51687;52.160;5.298;2024-01-06T14:27:32;13.40;55.70
43995;DHT22;51687;52.160;5.298;2024-01-06T14:29:59;13.40;55.50
43995;DHT22;51687;52.160;5.298;2024-01-06T14:32:26;13.40;56.00
43995;DHT22;51687;52.160;5.298;2024-01-06T14:34:53;13.40;57.60
43995;DHT22;51687;52.160;5.298;2024-01-06T14:37:20;13.40;55.60
43995;DHT22;51687;52.160;5.298;2024-01-06T14:39:47;13.40;56.20
43995;DHT22;51687;52.160;5.298;2024-01-06T14:42:14;13.50;53.90
43995;DHT22;51687;52.160;5.298;2024-01-06T14:44:43;13.40;56.40
43995;DHT22;51687;52.160;5.298;2024-01-06T14:47:09;13.40;55.70
43995;DHT22;51687;52.160;5.298;2024-01-06T14:49:36;13.40;54.40
43995;DHT22;51687;52.160;5.298;2024-01-06T14:52:04;13.30;54.00
43995;DHT22;51687;52.160;5.298;2024-01-06T14:54:31;13.30;55.50
43995;DHT22;51687;52.160;5.298;2024-01-06T14:57:00;13.30;56.20
43995;DHT22;51687;52.160;5.298;2024-01-06T14:59:26;13.20;56.60
43995;DHT22;51687;52.160;5.298;2024-01-06T15:01:53;13.20;56.40
43995;DHT22;51687;52.160;5.298;2024-01-06T15:04:20;13.20;56.10
43995;DHT22;51687;52.160;5.298;2024-01-06T15:06:47;13.20;55.60
43995;DHT22;51687;52.160;5.298;2024-01-06T15:09:15;13.20;56.80
43995;DHT22;51687;52.160;5.298;2024-01-06T15:11:42;13.20;55.90
43995;DHT22;51687;52.160;5.298;2024-01-06T15:14:09;13.20;57.30
43995;DHT22;51687;52.160;5.298;2024-01-06T15:16:35;13.30;57.00
43995;DHT22;51687;52.160;5.298;2024-01-06T15:19:03;13.30;58.10
43995;DHT22;51687;52.160;5.298;2024-01-06T15:21:30;13.40;58.40
43995;DHT22;51687;52.160;5.298;2024-01-06T15:24:01;13.50;56.10
43995;DHT22;51687;52.160;5.298;2024-01-06T15:26:28;13.40;55.40
43995;DHT22;51687;52.160;5.298;2024-01-06T15:28:56;13.40;59.30
43995;DHT22;51687;52.160;5.298;2024-01-06T15:31:25;13.40;55.50
43995;DHT22;51687;52.160;5.298;2024-01-06T15:33:52;13.30;55.30
43995;DHT22;51687;52.160;5.298;2024-01-06T15:36:19;13.30;55.80
43995;DHT22;51687;52.160;5.298;2024-01-06T15:38:45;13.30;53.80
43995;DHT22;51687;52.160;5.298;2024-01-06T15:41:12;13.20;53.30
43995;DHT22;51687;52.160;5.298;2024-01-06T15:43:39;13.20;52.50
43995;DHT22;51687;52.160;5.298;2024-01-06T15:46:05;13.10;53.10
43995;DHT22;51687;52.160;5.298;2024-01-06T15:48:32;13.10;54.70
43995;DHT22;51687;52.160;5.298;2024-01-06T15:51:00;13.10;56.00
43995;DHT22;51687;52.160;5.298;2024-01-06T15:53:26;13.10;55.30
43995;DHT22;51687;52.160;5.298;2024-01-06T15:55:53;13.10;54.70
43995;DHT22;51687;52.160;5.298;2024-01-06T15:58:20;13.10;54.50
43995;DHT22;51687;52.160;5.298;2024-01-06T16:00:47;13.20;57.80
43995;DHT22;51687;52.160;5.298;2024-01-06T16:03:14;13.20;55.10
43995;DHT22;51687;52.160;5.298;2024-01-06T16:05:41;13.20;55.30
43995;DHT22;51687;52.160;5.298;2024-01-06T16:08:09;13.20;55.40
43995;DHT22;51687;52.160;5.298;2024-01-06T16:10:36;13.20;54.80
43995;DHT22;51687;52.160;5.298;2024-01-06T16:13:02;13.30;57.90
43995;DHT22;51687;52.160;5.298;2024-01-06T16:15:30;13.30;55.00
43995;DHT22;51687;52.160;5.298;2024-01-06T16:17:57;13.30;55.20
43995;DHT22;51687;52.160;5.298;2024-01-06T16:20:24;13.20;53.00
43995;DHT22;51687;52.160;5.298;2024-01-06T16:22:50;13.10;52.20
43995;DHT22;51687;52.160;5.298;2024-01-06T16:25:17;13.00;54.50
43995;DHT22;51687;52.160;5.298;2024-01-06T16:27:44;13.10;56.50
43995;DHT22;51687;52.160;5.298;2024-01-06T16:30:12;13.10;56.50
43995;DHT22;51687;52.160;5.298;2024-01-06T16:32:40;13.20;56.20
43995;DHT22;51687;52.160;5.298;2024-01-06T16:35:07;13.20;56.50
43995;DHT22;51687;52.160;5.298;2024-01-06T16:37:35;13.30;56.50
43995;DHT22;51687;52.160;5.298;2024-01-06T16:40:02;13.30;55.60
43995;DHT22;51687;52.160;5.298;2024-01-06T16:42:29;13.30;55.00
43995;DHT22;51687;52.160;5.298;2024-01-06T16:44:55;13.40;54.30
43995;DHT22;51687;52.160;5.298;2024-01-06T16:47:22;13.40;54.20
43995;DHT22;51687;52.160;5.298;2024-01-06T16:49:49;13.30;54.80
43995;DHT22;51687;52.160;5.298;2024-01-06T16:52:16;13.40;55.70
43995;DHT22;51687;52.160;5.298;2024-01-06T16:54:42;13.40;53.10
43995;DHT22;51687;52.160;5.298;2024-01-06T16:57:09;13.30;52.80
43995;DHT22;51687;52.160;5.298;2024-01-06T16:59:36;13.30;56.20
43995;DHT22;51687;52.160;5.298;2024-01-06T17:02:03;13.30;54.60
43995;DHT22;51687;52.160;5.298;2024-01-06T17:04:31;13.30;52.40
43995;DHT22;51687;52.160;5.298;2024-01-06T17:06:59;13.30;52.80
43995;DHT22;51687;52.160;5.298;2024-01-06T17:09:26;13.30;55.40
43995;DHT22;51687;52.160;5.298;2024-01-06T17:11:53;13.30;55.60
43995;DHT22;51687;52.160;5.298;2024-01-06T17:14:20;13.30;55.30
43995;DHT22;51687;52.160;5.298;2024-01-06T17:16:48;13.40;55.00
43995;DHT22;51687;52.160;5.298;2024-01-06T17:19:14;13.40;52.00
43995;DHT22;51687;52.160;5.298;2024-01-06T17:21:41;13.40;53.30
43995;DHT22;51687;52.160;5.298;2024-01-06T17:24:08;13.40;52.80
43995;DHT22;51687;52.160;5.298;2024-01-06T17:26:35;13.30;52.30
43995;DHT22;51687;52.160;5.298;2024-01-06T17:29:02;13.40;53.20
43995;DHT22;51687;52.160;5.298;2024-01-06T17:31:28;13.30;51.10
43995;DHT22;51687;52.160;5.298;2024-01-06T17:33:55;13.30;52.40
43995;DHT22;51687;52.160;5.298;2024-01-06T17:36:22;13.30;53.10
43995;DHT22;51687;52.160;5.298;2024-01-06T17:38:49;13.30;52.20
43995;DHT22;51687;52.160;5.298;2024-01-06T17:41:16;13.30;54.10
43995;DHT22;51687;52.160;5.298;2024-01-06T17:43:43;13.20;52.10
43995;DHT22;51687;52.160;5.298;2024-01-06T17:46:10;13.30;53.70
43995;DHT22;51687;52.160;5.298;2024-01-06T17:48:36;13.30;57.10
43995;DHT22;51687;52.160;5.298;2024-01-06T17:51:04;13.50;56.20
43995;DHT22;51687;52.160;5.298;2024-01-06T17:53:30;13.50;55.00
43995;DHT22;51687;52.160;5.298;2024-01-06T17:55:57;13.60;54.60
43995;DHT22;51687;52.160;5.298;2024-01-06T17:58:24;13.60;53.20
43995;DHT22;51687;52.160;5.298;2024-01-06T18:00:51;13.60;52.70
43995;DHT22;51687;52.160;5.298;2024-01-06T18:03:18;13.60;53.60
43995;DHT22;51687;52.160;5.298;2024-01-06T18:05:45;13.60;54.30
43995;DHT22;51687;52.160;5.298;2024-01-06T18:08:12;13.60;54.50
43995;DHT22;51687;52.160;5.298;2024-01-06T18:10:39;13.70;53.50
43995;DHT22;51687;52.160;5.298;2024-01-06T18:13:05;13.70;52.60
43995;DHT22;51687;52.160;5.298;2024-01-06T18:15:32;13.60;53.00
43995;DHT22;51687;52.160;5.298;2024-01-06T18:18:00;13.60;53.20
43995;DHT22;51687;52.160;5.298;2024-01-06T18:20:27;13.60;52.80
43995;DHT22;51687;52.160;5.298;2024-01-06T18:22:54;13.50;50.20
43995;DHT22;51687;52.160;5.298;2024-01-06T18:25:21;13.50;53.90
43995;DHT22;51687;52.160;5.298;2024-01-06T18:27:47;13.40;51.00
43995;DHT22;51687;52.160;5.298;2024-01-06T18:30:14;13.30;51.00
43995;DHT22;51687;52.160;5.298;2024-01-06T18:32:41;13.30;50.50
43995;DHT22;51687;52.160;5.298;2024-01-06T18:35:08;13.30;53.40
43995;DHT22;51687;52.160;5.298;2024-01-06T18:37:35;13.30;51.70
43995;DHT22;51687;52.160;5.298;2024-01-06T18:40:03;13.20;49.80
43995;DHT22;51687;52.160;5.298;2024-01-06T18:42:31;13.20;50.50
43995;DHT22;51687;52.160;5.298;2024-01-06T18:44:59;13.10;49.70
43995;DHT22;51687;52.160;5.298;2024-01-06T18:47:27;13.00;50.50
43995;DHT22;51687;52.160;5.298;2024-01-06T18:49:55;13.00;52.00
43995;DHT22;51687;52.160;5.298;2024-01-06T18:52:22;13.10;53.40
43995;DHT22;51687;52.160;5.298;2024-01-06T18:54:49;13.10;53.80
43995;DHT22;51687;52.160;5.298;2024-01-06T18:57:16;13.20;51.60
43995;DHT22;51687;52.160;5.298;2024-01-06T18:59:44;13.20;50.60
43995;DHT22;51687;52.160;5.298;2024-01-06T19:02:11;13.10;49.50
43995;DHT22;51687;52.160;5.298;2024-01-06T19:04:38;13.10;48.60
43995;DHT22;51687;52.160;5.298;2024-01-06T19:07:05;13.00;50.90
43995;DHT22;51687;52.160;5.298;2024-01-06T19:09:32;13.00;49.40
43995;DHT22;51687;52.160;5.298;2024-01-06T19:12:01;12.90;48.30
43995;DHT22;51687;52.160;5.298;2024-01-06T19:14:29;12.80;50.80
43995;DHT22;51687;52.160;5.298;2024-01-06T19:16:56;12.80;49.70
43995;DHT22;51687;52.160;5.298;2024-01-06T19:19:22;12.70;49.90
43995;DHT22;51687;52.160;5.298;2024-01-06T19:21:49;12.60;48.10
43995;DHT22;51687;52.160;5.298;2024-01-06T19:24:16;12.60;49.90
43995;DHT22;51687;52.160;5.298;2024-01-06T19:26:58;12.50;49.30
43995;DHT22;51687;52.160;5.298;2024-01-06T19:29:26;12.50;52.00
43995;DHT22;51687;52.160;5.298;2024-01-06T19:31:54;12.60;52.60
43995;DHT22;51687;52.160;5.298;2024-01-06T19:34:21;12.60;52.30
43995;DHT22;51687;52.160;5.298;2024-01-06T19:36:48;12.60;51.70
43995;DHT22;51687;52.160;5.298;2024-01-06T19:39:15;12.60;53.30
43995;DHT22;51687;52.160;5.298;2024-01-06T19:41:42;12.60;52.90
43995;DHT22;51687;52.160;5.298;2024-01-06T19:44:09;12.60;50.80
43995;DHT22;51687;52.160;5.298;2024-01-06T19:46:36;12.60;50.10
43995;DHT22;51687;52.160;5.298;2024-01-06T19:49:03;12.60;50.20
43995;DHT22;51687;52.160;5.298;2024-01-06T19:51:30;12.60;53.70
43995;DHT22;51687;52.160;5.298;2024-01-06T19:53:57;12.60;51.40
43995;DHT22;51687;52.160;5.298;2024-01-06T19:56:24;12.60;49.50
43995;DHT22;51687;52.160;5.298;2024-01-06T19:58:50;12.50;50.60
43995;DHT22;51687;52.160;5.298;2024-01-06T20:01:18;12.50;50.00
43995;DHT22;51687;52.160;5.298;2024-01-06T20:03:45;12.40;48.60
43995;DHT22;51687;52.160;5.298;2024-01-06T20:06:13;12.40;50.20
43995;DHT22;51687;52.160;5.298;2024-01-06T20:08:40;12.40;49.80
43995;DHT22;51687;52.160;5.298;2024-01-06T20:11:07;12.40;49.90
43995;DHT22;51687;52.160;5.298;2024-01-06T20:13:34;12.30;52.40
43995;DHT22;51687;52.160;5.298;2024-01-06T20:18:29;12.40;49.20
43995;DHT22;51687;52.160;5.298;2024-01-06T20:20:57;12.30;48.00
43995;DHT22;51687;52.160;5.298;2024-01-06T20:23:23;12.30;49.00
43995;DHT22;51687;52.160;5.298;2024-01-06T20:25:51;12.20;49.70
43995;DHT22;51687;52.160;5.298;2024-01-06T20:28:17;12.20;49.30
43995;DHT22;51687;52.160;5.298;2024-01-06T20:30:44;12.20;48.60
43995;DHT22;51687;52.160;5.298;2024-01-06T20:33:11;12.20;49.80
43995;DHT22;51687;52.160;5.298;2024-01-06T20:35:42;12.20;50.10
43995;DHT22;51687;52.160;5.298;2024-01-06T20:38:09;12.20;49.30
43995;DHT22;51687;52.160;5.298;2024-01-06T20:40:36;12.20;51.90
43995;DHT22;51687;52.160;5.298;2024-01-06T20:43:03;12.20;49.40
43995;DHT22;51687;52.160;5.298;2024-01-06T20:45:30;12.20;49.80
43995;DHT22;51687;52.160;5.298;2024-01-06T20:47:57;12.20;48.60
43995;DHT22;51687;52.160;5.298;2024-01-06T20:50:24;12.20;47.60
43995;DHT22;51687;52.160;5.298;2024-01-06T20:52:51;12.20;50.70
43995;DHT22;51687;52.160;5.298;2024-01-06T20:55:18;12.10;49.00
43995;DHT22;51687;52.160;5.298;2024-01-06T20:57:45;12.20;52.70
43995;DHT22;51687;52.160;5.298;2024-01-06T21:00:12;12.20;50.90
43995;DHT22;51687;52.160;5.298;2024-01-06T21:02:39;12.30;51.60
43995;DHT22;51687;52.160;5.298;2024-01-06T21:05:06;12.30;55.10
43995;DHT22;51687;52.160;5.298;2024-01-06T21:07:33;12.40;53.30
43995;DHT22;51687;52.160;5.298;2024-01-06T21:10:01;12.40;53.90
43995;DHT22;51687;52.160;5.298;2024-01-06T21:12:30;12.50;56.00
43995;DHT22;51687;52.160;5.298;2024-01-06T21:14:58;12.60;55.80
43995;DHT22;51687;52.160;5.298;2024-01-06T21:17:27;12.60;55.30
43995;DHT22;51687;52.160;5.298;2024-01-06T21:19:54;12.70;55.10
43995;DHT22;51687;52.160;5.298;2024-01-06T21:22:21;12.70;53.40
43995;DHT22;51687;52.160;5.298;2024-01-06T21:24:48;12.80;52.80
43995;DHT22;51687;52.160;5.298;2024-01-06T21:27:17;12.80;50.30
43995;DHT22;51687;52.160;5.298;2024-01-06T21:29:44;12.70;51.20
43995;DHT22;51687;52.160;5.298;2024-01-06T21:32:11;12.70;51.10
43995;DHT22;51687;52.160;5.298;2024-01-06T21:34:38;12.70;50.80
43995;DHT22;51687;52.160;5.298;2024-01-06T21:37:05;12.80;51.90
43995;DHT22;51687;52.160;5.298;2024-01-06T21:39:32;12.70;48.90
43995;DHT22;51687;52.160;5.298;2024-01-06T21:41:59;12.70;50.80
43995;DHT22;51687;52.160;5.298;2024-01-06T21:44:26;12.80;53.90
43995;DHT22;51687;52.160;5.298;2024-01-06T21:46:53;12.70;50.90
43995;DHT22;51687;52.160;5.298;2024-01-06T21:49:20;12.70;49.90
43995;DHT22;51687;52.160;5.298;2024-01-06T21:51:51;12.60;49.30
43995;DHT22;51687;52.160;5.298;2024-01-06T21:54:20;12.60;51.20
43995;DHT22;51687;52.160;5.298;2024-01-06T21:56:47;12.60;53.80
43995;DHT22;51687;52.160;5.298;2024-01-06T21:59:15;12.70;52.00
43995;DHT22;51687;52.160;5.298;2024-01-06T22:01:42;12.70;52.90
43995;DHT22;51687;52.160;5.298;2024-01-06T22:04:09;12.70;52.00
43995;DHT22;51687;52.160;5.298;2024-01-06T22:06:39;12.70;52.10
43995;DHT22;51687;52.160;5.298;2024-01-06T22:09:06;12.70;54.60
43995;DHT22;51687;52.160;5.298;2024-01-06T22:11:38;12.80;55.80
43995;DHT22;51687;52.160;5.298;2024-01-06T22:14:06;12.90;54.10
43995;DHT22;51687;52.160;5.298;2024-01-06T22:16:33;13.00;52.70
43995;DHT22;51687;52.160;5.298;2024-01-06T22:18:59;13.00;54.00
43995;DHT22;51687;52.160;5.298;2024-01-06T22:21:26;13.10;53.30
43995;DHT22;51687;52.160;5.298;2024-01-06T22:23:56;13.10;54.10
43995;DHT22;51687;52.160;5.298;2024-01-06T22:26:25;13.20;55.60
43995;DHT22;51687;52.160;5.298;2024-01-06T22:28:51;13.30;54.60
43995;DHT22;51687;52.160;5.298;2024-01-06T22:31:18;13.20;52.10
43995;DHT22;51687;52.160;5.298;2024-01-06T22:33:45;13.20;54.40
43995;DHT22;51687;52.160;5.298;2024-01-06T22:36:12;13.30;52.90
43995;DHT22;51687;52.160;5.298;2024-01-06T22:38:39;13.10;54.20
43995;DHT22;51687;52.160;5.298;2024-01-06T22:41:20;13.30;51.40
43995;DHT22;51687;52.160;5.298;2024-01-06T22:43:47;13.30;53.30
43995;DHT22;51687;52.160;5.298;2024-01-06T22:46:14;13.30;55.20
43995;DHT22;51687;52.160;5.298;2024-01-06T22:48:40;13.30;53.30
43995;DHT22;51687;52.160;5.298;2024-01-06T22:51:08;13.30;52.40
43995;DHT22;51687;52.160;5.298;2024-01-06T22:53:35;13.30;51.90
43995;DHT22;51687;52.160;5.298;2024-01-06T22:56:04;13.40;52.80
43995;DHT22;51687;52.160;5.298;2024-01-06T22:58:31;13.40;51.70